Airfield :
LOGIN :

Register | Disclaimer

   EN    FR    IT 

 










Legend :    VFR   Marginal VFR   IFR   Intensive IFR   Very Intensive IFR
Visi :
Ceiling :
>= 8 km
>= 3000ft
5 to 8 km
1000 to 3000 ft
1500m to 5 km
500 to 1000 ft
800 to 1500m
200 to 500 ft
< 800m
< 200 ft
Symbols :   Thunderstorms  Fog  Heavy snow  Heavy precipitations  Wind > 20 kt
SIGMETs :     Misc.  Thunderstorms  Icing  Turbulence  Mountain Waves  Volcanic Ashes






- Airport Elevation : 33 ft
- IATA code : MHZ


EGUN - RAF Mildenhall

CURRENT METAR :
  • 190856Z 22011KT 9999 CLR 11/11 A2947 RMK AO2A SLP983 T01140106 52010 $

EXPIRED METARs :
  • 190756Z 22010KT 9999 CLR 10/10 A2946 RMK AO2A SLP979 T01010101 $
  • 190656Z 18006KT 9999 CLR 08/08 A2945 RMK AO2A SLP976 T00810081 $

TAF AMD TAF EGUN
Valid from the 19 at 08:00 until the 20 at 10:00 UTC


190843Z 1908/2010 22012KT 9999 SCT015 QNH2944INS
TEMPO 1909/1914 24010G20KT
BECMG 1913/1914 24010G15KT 9999 BKN030 QNH2949INS
TEMPO 1915/1918 9000 -SHRA
BECMG 1917/1918 24012KT 9999 SCT030 QNH2956INS
BECMG 2000/2001 26006KT 8000 BR BKN010 QNH2966INS TX14/1914Z TN09/2007Z



MET'MAP, your aeronautical weather chart ! - Copyright ORBIFLY December 2007 - Disclaimer

ORBIFLY MET'MAP TEAM :

Programming & Development : Alexandra Zaïnal
Concept & Development : Baudouin d'Aumeries
Co-Development & Prog : Marc-Olivier Méhu
Technical & hardware support : Manuel Goepfert

Contact : metmap@orbifly.com




SOURCES & CREDITS :

   NOAA